KBBB

Benson Municipal Airport

Benson, Minnesota, USA
METAR KBBB 152215Z AUTO 00000KT 10SM OVC032 25/18 A2996 RMK AO2
Observed Flight Rules
Aug-15 @ 22:15 UTC (13 minutes ago) Visual Flight Rules
Visibility Clouds
10 miles
  • Overcast at 3,200' AGL
Temperatures Readings
Current 25°C / 77°F
Dewpoint 18°C / 64°F
Humidity 65%
Altimeter 29.96" Hg
Pressure 1015 hPa
Elevation 317
METAR KBBB 152215Z AUTO 00000KT 10SM OVC032 25/18 A2996 RMK AO2
Observed Flight Rules
Aug-15 @ 22:15 UTC
(13 minutes ago)
VFR
Clouds
  • Overcast at 3,200' AGL
Temperature Dewpoint
25°C / 77°F 18°C / 64°F
Humidity Altimeter Pressure
65% 29.96" Hg 1015 hPa